sensor_id;sensor_type;location;lat;lon;timestamp;pressure;altitude;pressure_sealevel;temperature;humidity
65131;BME280;51709;54.912;8.316;2023-03-04T00:02:42;101961.81;;;6.31;71.00
65131;BME280;51709;54.912;8.316;2023-03-04T00:08:03;101973.78;;;6.37;70.88
65131;BME280;51709;54.912;8.316;2023-03-04T00:13:24;101962.75;;;6.38;71.02
65131;BME280;51709;54.912;8.316;2023-03-04T00:18:45;101936.50;;;6.43;71.13
65131;BME280;51709;54.912;8.316;2023-03-04T00:24:06;101961.22;;;6.47;70.93
65131;BME280;51709;54.912;8.316;2023-03-04T00:29:27;101960.44;;;6.52;71.05
65131;BME280;51709;54.912;8.316;2023-03-04T00:34:48;101966.31;;;6.47;71.16
65131;BME280;51709;54.912;8.316;2023-03-04T00:40:09;101941.59;;;6.42;71.53
65131;BME280;51709;54.912;8.316;2023-03-04T00:45:30;101946.78;;;6.50;71.25
65131;BME280;51709;54.912;8.316;2023-03-04T00:50:51;101949.41;;;6.54;70.99
65131;BME280;51709;54.912;8.316;2023-03-04T00:56:13;101935.78;;;6.52;70.98
65131;BME280;51709;54.912;8.316;2023-03-04T01:01:33;101932.09;;;6.31;72.08
65131;BME280;51709;54.912;8.316;2023-03-04T01:06:54;101930.25;;;6.23;72.44
65131;BME280;51709;54.912;8.316;2023-03-04T01:12:15;101917.44;;;6.16;72.53
65131;BME280;51709;54.912;8.316;2023-03-04T01:17:36;101921.66;;;6.16;72.69
65131;BME280;51709;54.912;8.316;2023-03-04T01:22:56;101927.66;;;6.20;72.65
65131;BME280;51709;54.912;8.316;2023-03-04T01:28:17;101904.94;;;6.35;72.00
65131;BME280;51709;54.912;8.316;2023-03-04T01:33:38;101919.47;;;6.39;71.78
65131;BME280;51709;54.912;8.316;2023-03-04T01:38:58;101907.56;;;6.40;71.69
65131;BME280;51709;54.912;8.316;2023-03-04T01:44:20;101905.84;;;6.39;71.79
65131;BME280;51709;54.912;8.316;2023-03-04T01:49:41;101900.72;;;6.39;71.81
65131;BME280;51709;54.912;8.316;2023-03-04T01:55:08;101877.66;;;6.29;71.83
65131;BME280;51709;54.912;8.316;2023-03-04T02:00:34;101871.78;;;6.34;71.67
65131;BME280;51709;54.912;8.316;2023-03-04T02:05:57;101876.06;;;6.36;71.34
65131;BME280;51709;54.912;8.316;2023-03-04T02:11:17;101876.94;;;6.38;71.18
65131;BME280;51709;54.912;8.316;2023-03-04T02:16:38;101891.34;;;6.36;71.16
65131;BME280;51709;54.912;8.316;2023-03-04T02:21:59;101870.91;;;6.33;70.95
65131;BME280;51709;54.912;8.316;2023-03-04T02:27:20;101854.66;;;6.23;71.04
65131;BME280;51709;54.912;8.316;2023-03-04T02:32:41;101865.69;;;6.24;70.70
65131;BME280;51709;54.912;8.316;2023-03-04T02:38:03;101866.59;;;6.26;70.40
65131;BME280;51709;54.912;8.316;2023-03-04T02:43:27;101847.97;;;6.33;70.44
65131;BME280;51709;54.912;8.316;2023-03-04T02:48:50;101848.63;;;6.16;70.62
65131;BME280;51709;54.912;8.316;2023-03-04T02:54:20;101831.56;;;6.12;70.76
65131;BME280;51709;54.912;8.316;2023-03-04T02:59:41;101836.66;;;6.12;70.64
65131;BME280;51709;54.912;8.316;2023-03-04T03:05:08;101838.22;;;6.03;70.56
65131;BME280;51709;54.912;8.316;2023-03-04T03:10:29;101849.34;;;6.08;70.10
65131;BME280;51709;54.912;8.316;2023-03-04T03:15:50;101843.31;;;6.03;69.85
65131;BME280;51709;54.912;8.316;2023-03-04T03:21:14;101830.56;;;6.01;69.58
65131;BME280;51709;54.912;8.316;2023-03-04T03:26:35;101822.78;;;5.93;69.33
65131;BME280;51709;54.912;8.316;2023-03-04T03:31:55;101829.53;;;5.91;68.99
65131;BME280;51709;54.912;8.316;2023-03-04T03:37:17;101811.66;;;5.88;68.88
65131;BME280;51709;54.912;8.316;2023-03-04T03:42:37;101805.69;;;5.86;68.80
65131;BME280;51709;54.912;8.316;2023-03-04T03:47:58;101810.81;;;5.88;68.44
65131;BME280;51709;54.912;8.316;2023-03-04T03:53:18;101838.00;;;5.90;68.44
65131;BME280;51709;54.912;8.316;2023-03-04T03:58:39;101834.66;;;5.93;68.00
65131;BME280;51709;54.912;8.316;2023-03-04T04:04:00;101845.53;;;5.82;68.66
65131;BME280;51709;54.912;8.316;2023-03-04T04:09:20;101840.47;;;5.84;68.36
65131;BME280;51709;54.912;8.316;2023-03-04T04:14:41;101848.75;;;5.69;68.79
65131;BME280;51709;54.912;8.316;2023-03-04T04:20:03;101820.69;;;5.66;68.57
65131;BME280;51709;54.912;8.316;2023-03-04T04:25:24;101822.41;;;5.67;68.12
65131;BME280;51709;54.912;8.316;2023-03-04T04:30:44;101824.88;;;5.64;68.17
65131;BME280;51709;54.912;8.316;2023-03-04T04:36:05;101814.56;;;5.54;68.59
65131;BME280;51709;54.912;8.316;2023-03-04T04:41:29;101824.94;;;5.67;67.85
65131;BME280;51709;54.912;8.316;2023-03-04T04:46:51;101830.75;;;5.58;68.30
65131;BME280;51709;54.912;8.316;2023-03-04T04:52:12;101838.59;;;5.72;67.63
65131;BME280;51709;54.912;8.316;2023-03-04T04:57:33;101842.66;;;5.59;68.02
65131;BME280;51709;54.912;8.316;2023-03-04T05:02:54;101846.78;;;5.51;68.01
65131;BME280;51709;54.912;8.316;2023-03-04T05:08:14;101848.44;;;5.50;68.16
65131;BME280;51709;54.912;8.316;2023-03-04T05:13:35;101840.91;;;5.57;67.74
65131;BME280;51709;54.912;8.316;2023-03-04T05:18:55;101826.56;;;5.62;67.17
65131;BME280;51709;54.912;8.316;2023-03-04T05:24:16;101815.13;;;5.38;67.60
65131;BME280;51709;54.912;8.316;2023-03-04T05:29:37;101848.06;;;5.27;67.80
65131;BME280;51709;54.912;8.316;2023-03-04T05:34:57;101834.81;;;5.48;67.14
65131;BME280;51709;54.912;8.316;2023-03-04T05:40:18;101843.97;;;5.37;67.30
65131;BME280;51709;54.912;8.316;2023-03-04T05:45:39;101848.16;;;5.32;67.50
65131;BME280;51709;54.912;8.316;2023-03-04T05:51:00;101859.13;;;5.29;67.40
65131;BME280;51709;54.912;8.316;2023-03-04T05:56:20;101853.19;;;5.29;67.41
65131;BME280;51709;54.912;8.316;2023-03-04T06:01:41;101839.56;;;5.27;67.07
65131;BME280;51709;54.912;8.316;2023-03-04T06:07:02;101848.97;;;5.29;66.99
65131;BME280;51709;54.912;8.316;2023-03-04T06:12:23;101821.59;;;5.19;67.38
65131;BME280;51709;54.912;8.316;2023-03-04T06:17:44;101849.59;;;5.17;66.93
65131;BME280;51709;54.912;8.316;2023-03-04T06:23:04;101854.63;;;5.14;67.10
65131;BME280;51709;54.912;8.316;2023-03-04T06:28:25;101853.72;;;5.12;67.00
65131;BME280;51709;54.912;8.316;2023-03-04T06:33:46;101857.97;;;5.12;67.10
65131;BME280;51709;54.912;8.316;2023-03-04T06:39:07;101862.38;;;5.20;67.00
65131;BME280;51709;54.912;8.316;2023-03-04T06:44:27;101848.91;;;5.26;66.49
65131;BME280;51709;54.912;8.316;2023-03-04T06:49:48;101868.50;;;5.32;66.20
65131;BME280;51709;54.912;8.316;2023-03-04T06:55:09;101868.56;;;5.35;65.80
65131;BME280;51709;54.912;8.316;2023-03-04T07:00:30;101873.53;;;5.29;66.08
65131;BME280;51709;54.912;8.316;2023-03-04T07:05:50;101858.31;;;5.32;66.31
65131;BME280;51709;54.912;8.316;2023-03-04T07:11:12;101873.88;;;5.49;65.60
65131;BME280;51709;54.912;8.316;2023-03-04T07:16:33;101896.09;;;5.58;65.53
65131;BME280;51709;54.912;8.316;2023-03-04T07:21:54;101873.28;;;5.64;65.30
65131;BME280;51709;54.912;8.316;2023-03-04T07:27:14;101904.56;;;5.57;65.06
65131;BME280;51709;54.912;8.316;2023-03-04T07:32:35;101883.38;;;5.58;64.93
65131;BME280;51709;54.912;8.316;2023-03-04T07:37:56;101896.13;;;5.61;64.91
65131;BME280;51709;54.912;8.316;2023-03-04T07:43:17;101918.28;;;5.63;64.52
65131;BME280;51709;54.912;8.316;2023-03-04T07:48:38;101895.38;;;5.65;64.41
65131;BME280;51709;54.912;8.316;2023-03-04T07:53:59;101896.38;;;5.75;64.07
65131;BME280;51709;54.912;8.316;2023-03-04T07:59:20;101913.41;;;5.77;64.12
65131;BME280;51709;54.912;8.316;2023-03-04T08:04:40;101917.66;;;5.80;64.00
65131;BME280;51709;54.912;8.316;2023-03-04T08:10:02;101923.75;;;5.88;63.96
65131;BME280;51709;54.912;8.316;2023-03-04T08:15:23;101904.31;;;5.93;63.82
65131;BME280;51709;54.912;8.316;2023-03-04T08:20:44;101934.00;;;5.91;64.07
65131;BME280;51709;54.912;8.316;2023-03-04T08:26:14;101933.19;;;5.94;63.83
65131;BME280;51709;54.912;8.316;2023-03-04T08:31:35;101934.22;;;6.04;63.96
65131;BME280;51709;54.912;8.316;2023-03-04T08:36:56;101922.44;;;6.12;63.73
65131;BME280;51709;54.912;8.316;2023-03-04T08:42:16;101921.66;;;6.14;63.84
65131;BME280;51709;54.912;8.316;2023-03-04T08:47:37;101931.91;;;6.21;63.72
65131;BME280;51709;54.912;8.316;2023-03-04T08:52:58;101917.53;;;6.24;63.79
65131;BME280;51709;54.912;8.316;2023-03-04T08:58:19;101923.25;;;6.09;64.14
65131;BME280;51709;54.912;8.316;2023-03-04T09:03:41;101946.78;;;5.94;64.24
65131;BME280;51709;54.912;8.316;2023-03-04T09:09:02;101950.19;;;5.95;63.86
65131;BME280;51709;54.912;8.316;2023-03-04T09:14:23;101936.81;;;6.05;63.78
65131;BME280;51709;54.912;8.316;2023-03-04T09:19:46;101939.44;;;6.13;63.42
65131;BME280;51709;54.912;8.316;2023-03-04T09:25:08;101930.63;;;6.49;62.63
65131;BME280;51709;54.912;8.316;2023-03-04T09:30:33;101934.56;;;6.93;61.59
65131;BME280;51709;54.912;8.316;2023-03-04T09:35:54;101927.25;;;7.21;61.08
65131;BME280;51709;54.912;8.316;2023-03-04T09:41:19;101949.09;;;6.99;61.61
65131;BME280;51709;54.912;8.316;2023-03-04T09:46:42;101948.13;;;6.89;61.83
65131;BME280;51709;54.912;8.316;2023-03-04T09:57:52;101949.97;;;7.01;61.91
65131;BME280;51709;54.912;8.316;2023-03-04T10:03:17;101960.69;;;7.49;60.38
65131;BME280;51709;54.912;8.316;2023-03-04T10:08:44;101934.81;;;7.13;61.00
65131;BME280;51709;54.912;8.316;2023-03-04T10:20:04;101917.63;;;7.89;59.25
65131;BME280;51709;54.912;8.316;2023-03-04T10:25:31;101939.59;;;7.65;59.78
65131;BME280;51709;54.912;8.316;2023-03-04T10:31:09;101941.09;;;7.48;60.29
65131;BME280;51709;54.912;8.316;2023-03-04T10:36:37;101942.31;;;7.87;59.53
65131;BME280;51709;54.912;8.316;2023-03-04T10:42:05;101952.25;;;8.69;57.54
65131;BME280;51709;54.912;8.316;2023-03-04T10:47:28;101938.81;;;9.46;55.92
65131;BME280;51709;54.912;8.316;2023-03-04T10:52:49;101937.63;;;11.19;52.54
65131;BME280;51709;54.912;8.316;2023-03-04T10:58:14;101936.09;;;10.77;53.20
65131;BME280;51709;54.912;8.316;2023-03-04T11:03:45;101916.00;;;11.52;52.52
65131;BME280;51709;54.912;8.316;2023-03-04T11:09:20;101923.78;;;16.10;42.15
65131;BME280;51709;54.912;8.316;2023-03-04T11:25:46;101938.78;;;10.46;54.60
65131;BME280;51709;54.912;8.316;2023-03-04T11:31:13;101925.63;;;14.55;46.22
65131;BME280;51709;54.912;8.316;2023-03-04T11:36:53;101924.97;;;17.73;38.03
65131;BME280;51709;54.912;8.316;2023-03-04T11:42:49;101920.94;;;16.51;42.11
65131;BME280;51709;54.912;8.316;2023-03-04T11:48:19;101920.03;;;16.52;41.77
65131;BME280;51709;54.912;8.316;2023-03-04T12:05:29;101917.47;;;11.78;50.64
65131;BME280;51709;54.912;8.316;2023-03-04T12:11:05;101915.53;;;10.84;52.34
65131;BME280;51709;54.912;8.316;2023-03-04T12:16:52;101902.06;;;10.13;53.03
65131;BME280;51709;54.912;8.316;2023-03-04T12:27:54;101905.19;;;15.24;41.31
65131;BME280;51709;54.912;8.316;2023-03-04T12:38:58;101895.09;;;10.62;49.83
65131;BME280;51709;54.912;8.316;2023-03-04T12:44:20;101879.91;;;9.69;51.38
65131;BME280;51709;54.912;8.316;2023-03-04T12:55:15;101890.94;;;9.06;51.78
65131;BME280;51709;54.912;8.316;2023-03-04T13:00:56;101889.88;;;8.48;52.57
65131;BME280;51709;54.912;8.316;2023-03-04T13:06:35;101888.81;;;12.22;45.33
65131;BME280;51709;54.912;8.316;2023-03-04T13:12:13;101877.84;;;17.59;34.70
65131;BME280;51709;54.912;8.316;2023-03-04T13:18:36;101893.84;;;15.99;37.13
65131;BME280;51709;54.912;8.316;2023-03-04T13:23:32;101896.84;;;20.29;31.70
65131;BME280;51709;54.912;8.316;2023-03-04T13:28:55;101902.06;;;15.10;40.70
65131;BME280;51709;54.912;8.316;2023-03-04T13:45:41;101899.44;;;10.27;48.77
65131;BME280;51709;54.912;8.316;2023-03-04T13:51:01;101899.47;;;9.03;50.53
65131;BME280;51709;54.912;8.316;2023-03-04T13:56:26;101890.66;;;8.33;51.19
65131;BME280;51709;54.912;8.316;2023-03-04T14:02:10;101874.13;;;7.83;50.96
65131;BME280;51709;54.912;8.316;2023-03-04T14:07:34;101888.06;;;7.20;51.36
65131;BME280;51709;54.912;8.316;2023-03-04T14:12:56;101882.56;;;6.83;51.76
65131;BME280;51709;54.912;8.316;2023-03-04T14:18:18;101883.22;;;6.65;51.57
65131;BME280;51709;54.912;8.316;2023-03-04T14:23:39;101895.06;;;6.58;51.15
65131;BME280;51709;54.912;8.316;2023-03-04T14:28:59;101895.31;;;6.80;50.18
65131;BME280;51709;54.912;8.316;2023-03-04T14:34:27;101877.94;;;6.51;50.12
65131;BME280;51709;54.912;8.316;2023-03-04T14:39:54;101886.97;;;6.26;50.63
65131;BME280;51709;54.912;8.316;2023-03-04T14:45:15;101883.69;;;6.35;50.24
65131;BME280;51709;54.912;8.316;2023-03-04T14:50:49;101886.84;;;6.16;50.55
65131;BME280;51709;54.912;8.316;2023-03-04T14:56:10;101884.88;;;5.98;50.60
65131;BME280;51709;54.912;8.316;2023-03-04T15:01:33;101862.53;;;5.82;50.93
65131;BME280;51709;54.912;8.316;2023-03-04T15:06:54;101877.59;;;5.69;50.80
65131;BME280;51709;54.912;8.316;2023-03-04T15:12:22;101867.69;;;5.86;50.45
65131;BME280;51709;54.912;8.316;2023-03-04T15:17:43;101857.28;;;5.73;50.56
65131;BME280;51709;54.912;8.316;2023-03-04T15:23:06;101879.94;;;5.55;50.77
65131;BME280;51709;54.912;8.316;2023-03-04T15:28:36;101864.53;;;5.49;50.73
65131;BME280;51709;54.912;8.316;2023-03-04T15:33:57;101865.44;;;5.51;50.53
65131;BME280;51709;54.912;8.316;2023-03-04T15:39:18;101851.78;;;5.46;50.35
65131;BME280;51709;54.912;8.316;2023-03-04T15:44:40;101855.19;;;5.47;50.35
65131;BME280;51709;54.912;8.316;2023-03-04T15:50:01;101855.19;;;5.47;50.16
65131;BME280;51709;54.912;8.316;2023-03-04T15:55:23;101860.94;;;5.36;50.60
65131;BME280;51709;54.912;8.316;2023-03-04T16:00:44;101873.69;;;5.38;50.51
65131;BME280;51709;54.912;8.316;2023-03-04T16:06:16;101845.63;;;5.33;50.77
65131;BME280;51709;54.912;8.316;2023-03-04T16:11:41;101842.97;;;5.27;50.79
65131;BME280;51709;54.912;8.316;2023-03-04T16:17:04;101854.44;;;5.03;51.74
65131;BME280;51709;54.912;8.316;2023-03-04T16:22:28;101850.19;;;5.02;51.63
65131;BME280;51709;54.912;8.316;2023-03-04T16:27:51;101857.22;;;5.16;51.47
65131;BME280;51709;54.912;8.316;2023-03-04T16:33:13;101851.00;;;5.03;51.70
65131;BME280;51709;54.912;8.316;2023-03-04T16:38:35;101852.56;;;4.94;52.22
65131;BME280;51709;54.912;8.316;2023-03-04T16:43:58;101848.22;;;4.87;52.34
65131;BME280;51709;54.912;8.316;2023-03-04T16:49:20;101851.53;;;4.85;52.53
65131;BME280;51709;54.912;8.316;2023-03-04T16:54:40;101847.34;;;4.88;52.28
65131;BME280;51709;54.912;8.316;2023-03-04T17:00:02;101847.19;;;4.79;52.64
65131;BME280;51709;54.912;8.316;2023-03-04T17:05:25;101840.38;;;4.78;52.68
65131;BME280;51709;54.912;8.316;2023-03-04T17:10:46;101839.53;;;4.76;52.79
65131;BME280;51709;54.912;8.316;2023-03-04T17:16:12;101838.56;;;4.71;53.05
65131;BME280;51709;54.912;8.316;2023-03-04T17:21:36;101834.38;;;4.74;53.10
65131;BME280;51709;54.912;8.316;2023-03-04T17:26:57;101845.44;;;4.76;52.87
65131;BME280;51709;54.912;8.316;2023-03-04T17:39:49;101828.47;;;4.74;53.16
65131;BME280;51709;54.912;8.316;2023-03-04T17:45:10;101818.50;;;5.34;52.06
65131;BME280;51709;54.912;8.316;2023-03-04T17:50:31;101835.41;;;5.32;52.46
65131;BME280;51709;54.912;8.316;2023-03-04T17:55:57;101798.72;;;5.19;52.89
65131;BME280;51709;54.912;8.316;2023-03-04T18:01:22;101826.59;;;5.11;53.24
65131;BME280;51709;54.912;8.316;2023-03-04T18:06:43;101799.34;;;5.05;53.41
65131;BME280;51709;54.912;8.316;2023-03-04T18:12:04;101817.94;;;5.03;53.76
65131;BME280;51709;54.912;8.316;2023-03-04T18:17:28;101820.41;;;4.98;54.04
65131;BME280;51709;54.912;8.316;2023-03-04T18:22:51;101821.66;;;4.73;54.57
65131;BME280;51709;54.912;8.316;2023-03-04T18:28:12;101795.94;;;4.59;55.10
65131;BME280;51709;54.912;8.316;2023-03-04T18:33:33;101815.38;;;4.55;55.37
65131;BME280;51709;54.912;8.316;2023-03-04T18:38:54;101811.94;;;4.53;55.58
65131;BME280;51709;54.912;8.316;2023-03-04T18:44:16;101807.59;;;4.47;55.90
65131;BME280;51709;54.912;8.316;2023-03-04T18:49:41;101804.28;;;4.50;56.32
65131;BME280;51709;54.912;8.316;2023-03-04T18:55:03;101800.66;;;4.39;56.32
65131;BME280;51709;54.912;8.316;2023-03-04T19:00:24;101803.84;;;4.28;56.69
65131;BME280;51709;54.912;8.316;2023-03-04T19:05:48;101788.59;;;4.28;56.79
65131;BME280;51709;54.912;8.316;2023-03-04T19:11:08;101783.28;;;4.18;57.01
65131;BME280;51709;54.912;8.316;2023-03-04T19:16:30;101783.13;;;4.10;57.38
65131;BME280;51709;54.912;8.316;2023-03-04T19:21:51;101777.69;;;4.34;56.68
65131;BME280;51709;54.912;8.316;2023-03-04T19:27:12;101801.50;;;4.39;56.80
65131;BME280;51709;54.912;8.316;2023-03-04T19:32:33;101786.81;;;4.26;57.10
65131;BME280;51709;54.912;8.316;2023-03-04T19:37:54;101789.41;;;4.27;56.98
65131;BME280;51709;54.912;8.316;2023-03-04T19:43:15;101781.22;;;4.42;56.56
65131;BME280;51709;54.912;8.316;2023-03-04T19:48:37;101779.84;;;4.60;56.11
65131;BME280;51709;54.912;8.316;2023-03-04T19:53:59;101787.22;;;4.44;56.46
65131;BME280;51709;54.912;8.316;2023-03-04T19:59:20;101758.38;;;4.44;56.48
65131;BME280;51709;54.912;8.316;2023-03-04T20:04:41;101777.97;;;4.48;56.48
65131;BME280;51709;54.912;8.316;2023-03-04T20:10:02;101754.31;;;4.52;56.32
65131;BME280;51709;54.912;8.316;2023-03-04T20:15:22;101756.97;;;4.60;56.03
65131;BME280;51709;54.912;8.316;2023-03-04T20:20:47;101747.56;;;4.54;56.13
65131;BME280;51709;54.912;8.316;2023-03-04T20:26:08;101751.03;;;4.58;55.95
65131;BME280;51709;54.912;8.316;2023-03-04T20:31:42;101741.94;;;4.72;55.35
65131;BME280;51709;54.912;8.316;2023-03-04T20:37:03;101726.31;;;4.51;55.91
65131;BME280;51709;54.912;8.316;2023-03-04T20:42:24;101744.09;;;4.51;56.02
65131;BME280;51709;54.912;8.316;2023-03-04T20:47:45;101730.56;;;4.52;55.67
65131;BME280;51709;54.912;8.316;2023-03-04T20:53:06;101725.41;;;4.48;55.89
65131;BME280;51709;54.912;8.316;2023-03-04T20:58:26;101721.16;;;4.47;56.11
65131;BME280;51709;54.912;8.316;2023-03-04T21:03:48;101715.31;;;4.52;56.04
65131;BME280;51709;54.912;8.316;2023-03-04T21:09:12;101723.03;;;4.56;55.79
65131;BME280;51709;54.912;8.316;2023-03-04T21:14:33;101708.81;;;4.66;55.63
65131;BME280;51709;54.912;8.316;2023-03-04T21:19:53;101712.03;;;4.59;55.70
65131;BME280;51709;54.912;8.316;2023-03-04T21:25:14;101700.41;;;4.70;55.54
65131;BME280;51709;54.912;8.316;2023-03-04T21:30:35;101693.25;;;4.51;55.94
65131;BME280;51709;54.912;8.316;2023-03-04T21:35:56;101679.94;;;4.62;55.75
65131;BME280;51709;54.912;8.316;2023-03-04T21:41:20;101667.16;;;4.61;55.79
65131;BME280;51709;54.912;8.316;2023-03-04T21:46:44;101683.00;;;4.44;56.36
65131;BME280;51709;54.912;8.316;2023-03-04T21:52:08;101679.44;;;4.35;56.63
65131;BME280;51709;54.912;8.316;2023-03-04T21:57:33;101670.69;;;4.20;57.10
65131;BME280;51709;54.912;8.316;2023-03-04T22:02:54;101664.69;;;4.15;57.22
65131;BME280;51709;54.912;8.316;2023-03-04T22:08:18;101683.16;;;4.08;57.69
65131;BME280;51709;54.912;8.316;2023-03-04T22:13:46;101671.28;;;4.07;57.98
65131;BME280;51709;54.912;8.316;2023-03-04T22:19:17;101667.00;;;4.04;58.08
65131;BME280;51709;54.912;8.316;2023-03-04T22:24:38;101656.88;;;4.06;58.17
65131;BME280;51709;54.912;8.316;2023-03-04T22:29:59;101663.06;;;4.20;57.52
65131;BME280;51709;54.912;8.316;2023-03-04T22:35:27;101648.84;;;4.28;57.28
65131;BME280;51709;54.912;8.316;2023-03-04T22:40:51;101653.09;;;4.31;56.96
65131;BME280;51709;54.912;8.316;2023-03-04T22:46:24;101635.16;;;4.22;57.11
65131;BME280;51709;54.912;8.316;2023-03-04T22:51:45;101631.88;;;4.27;56.82
65131;BME280;51709;54.912;8.316;2023-03-04T22:57:06;101622.63;;;4.31;56.62
65131;BME280;51709;54.912;8.316;2023-03-04T23:02:26;101605.66;;;4.28;56.83
65131;BME280;51709;54.912;8.316;2023-03-04T23:07:49;101614.84;;;4.22;56.92
65131;BME280;51709;54.912;8.316;2023-03-04T23:13:10;101614.72;;;4.15;57.24
65131;BME280;51709;54.912;8.316;2023-03-04T23:18:31;101590.88;;;4.09;57.36
65131;BME280;51709;54.912;8.316;2023-03-04T23:23:52;101605.97;;;3.99;57.50
65131;BME280;51709;54.912;8.316;2023-03-04T23:29:14;101607.53;;;3.94;57.78
65131;BME280;51709;54.912;8.316;2023-03-04T23:34:35;101603.09;;;3.81;58.15
65131;BME280;51709;54.912;8.316;2023-03-04T23:39:56;101588.53;;;3.74;58.17
65131;BME280;51709;54.912;8.316;2023-03-04T23:45:16;101579.09;;;3.66;58.43
65131;BME280;51709;54.912;8.316;2023-03-04T23:50:37;101574.03;;;3.68;58.55
65131;BME280;51709;54.912;8.316;2023-03-04T23:55:58;101598.69;;;3.74;58.31
